Аэропорт: Сары-Арка. Караганда

ICAO: UAKK

METAR:
2018/09/19 07:30
UAKK 190730Z 18008MPS 150V210 CAVOK 21/M10 Q1015 R05/0///70 NOSIG RMK QFE714/0952
METAR:
2018/09/19 06:18
TAF UAKK 190500Z 1906/2006 16006MPS 9999 SCT040 BKN100 TX20/1910Z TN02/1923Z 
      TEMPO 1906/1912 18009MPS SCT030CB 
      BECMG 1914/1916 VRB02MPS 
      BECMG 2002/2004 17008MPS